Time;durP1;ratioP1;P1;durP2;ratioP2;P2;SDS_P1;SDS_P2;PMS_P1;PMS_P2;Temp;Humidity;BMP_temperature;BMP_pressure;BME280_temperature;BME280_humidity;BME280_pressure;Samples;Min_cycle;Max_cycle;Signal;HPM_P1;HPM_P2
2022/08/24 00:02:24;;;;;;;7.53;3.40;;;25.60;56.00;;;;;;10062798;28;20069;-66
2022/08/24 00:07:15;;;;;;;6.57;3.33;;;25.60;55.90;;;;;;10053948;28;20067;-67
2022/08/24 00:12:06;;;;;;;4.72;2.85;;;25.70;56.10;;;;;;10058626;28;20547;-65
2022/08/24 00:16:58;;;;;;;6.35;2.47;;;25.50;56.10;;;;;;10059523;28;20320;-66
2022/08/24 00:21:49;;;;;;;4.93;3.17;;;25.50;56.00;;;;;;10053161;28;20108;-66
2022/08/24 00:26:40;;;;;;;3.45;2.08;;;25.60;55.90;;;;;;10046051;28;20049;-66
2022/08/24 00:31:30;;;;;;;3.97;3.00;;;25.70;55.70;;;;;;10038944;28;20021;-65
2022/08/24 00:36:23;;;;;;;3.78;2.88;;;25.80;55.50;;;;;;10058077;28;20087;-66
2022/08/24 00:41:15;;;;;;;4.75;2.47;;;25.80;55.50;;;;;;10055466;28;20510;-66
2022/08/24 00:46:16;;;;;;;4.63;2.42;;;25.80;55.60;;;;;;10062752;28;20114;-66
2022/08/24 00:51:34;;;;;;;3.25;2.85;;;25.80;55.40;;;;;;10053324;28;20026;-66
2022/08/24 00:56:45;;;;;;;4.05;2.58;;;25.90;55.30;;;;;;10055780;28;20037;-65
2022/08/24 01:01:37;;;;;;;5.45;2.53;;;25.80;55.20;;;;;;10061501;28;20096;-67
2022/08/24 01:06:28;;;;;;;4.55;3.10;;;25.60;55.20;;;;;;10052480;28;20513;-65
2022/08/24 01:11:23;;;;;;;4.25;2.70;;;25.40;55.30;;;;;;10054509;28;20096;-66
2022/08/24 01:18:48;;;;;;;;;;;25.60;55.40;;;;;;10048225;28;20036;-65
2022/08/24 01:21:35;;;;;;;3.33;2.40;;;25.60;55.10;;;;;;10054003;28;19909;-65
2022/08/24 01:26:31;;;;;;;3.83;2.58;;;25.60;55.10;;;;;;10056121;28;20119;-66
2022/08/24 01:31:23;;;;;;;2.92;2.17;;;25.70;55.10;;;;;;10055324;28;20022;-66
2022/08/24 01:36:28;;;;;;;3.70;2.35;;;25.70;55.10;;;;;;10047396;28;20149;-65
2022/08/24 01:41:19;;;;;;;;;;;25.60;55.20;;;;;;10061405;28;20029;-66
2022/08/24 01:46:09;;;;;;;7.15;3.00;;;25.70;55.30;;;;;;10061073;28;19925;-66
2022/08/24 01:51:00;;;;;;;3.85;3.03;;;25.70;55.00;;;;;;10052183;28;20056;-65
2022/08/24 01:55:50;;;;;;;8.70;3.70;;;25.50;55.40;;;;;;10047348;28;20046;-66
2022/08/24 02:00:43;;;;;;;3.92;2.67;;;25.60;55.60;;;;;;10050229;28;20410;-66
2022/08/24 02:05:35;;;;;;;3.40;3.10;;;25.60;55.70;;;;;;10031536;28;20028;-67
2022/08/24 02:10:26;;;;;;;3.63;2.70;;;25.50;55.90;;;;;;10066555;28;20113;-66
2022/08/24 02:15:16;;;;;;;5.70;3.25;;;25.40;56.30;;;;;;10062365;28;20102;-66
2022/08/24 02:20:08;;;;;;;9.20;3.25;;;25.40;56.40;;;;;;10051324;28;20161;-66
2022/08/24 02:24:58;;;;;;;5.18;3.42;;;25.40;56.80;;;;;;10066730;28;20025;-67
2022/08/24 02:29:49;;;;;;;6.95;4.00;;;25.40;57.20;;;;;;10056241;28;20526;-66
2022/08/24 02:34:40;;;;;;;7.60;3.60;;;25.10;58.20;;;;;;10059432;28;20017;-66
2022/08/24 02:39:31;;;;;;;5.18;3.08;;;24.80;59.80;;;;;;10060561;28;20029;-67
2022/08/24 02:44:21;;;;;;;4.82;2.70;;;24.70;60.40;;;;;;10037272;28;20037;-66
2022/08/24 02:49:12;;;;;;;4.63;2.95;;;24.60;60.80;;;;;;10052398;28;20090;-67
2022/08/24 02:54:04;;;;;;;5.57;3.08;;;24.70;60.90;;;;;;10052858;28;20142;-66
2022/08/24 02:58:56;;;;;;;3.15;2.75;;;24.60;61.10;;;;;;10052019;28;20479;-65
2022/08/24 03:03:47;;;;;;;4.65;3.50;;;24.60;61.60;;;;;;10052991;28;20087;-66
2022/08/24 03:08:39;;;;;;;4.45;3.13;;;24.50;61.70;;;;;;10055813;28;20033;-66
2022/08/24 03:13:30;;;;;;;5.60;3.30;;;24.60;61.90;;;;;;10056265;28;20060;-67
2022/08/24 03:18:24;;;;;;;6.80;3.65;;;24.50;62.30;;;;;;10054452;28;20035;-66
2022/08/24 03:23:15;;;;;;;3.38;3.05;;;24.40;62.70;;;;;;10034378;28;20112;-67
2022/08/24 03:28:06;;;;;;;5.38;3.50;;;24.20;63.10;;;;;;10052014;28;20148;-66
2022/08/24 03:32:56;;;;;;;5.63;3.53;;;24.30;63.30;;;;;;10059268;28;20033;-66
2022/08/24 03:37:49;;;;;;;6.72;3.45;;;24.30;63.20;;;;;;10066235;28;20037;-64
2022/08/24 03:42:40;;;;;;;3.85;2.90;;;24.20;63.40;;;;;;10058304;28;20112;-66
2022/08/24 03:47:30;;;;;;;7.60;3.25;;;24.30;63.10;;;;;;10057775;28;20247;-67
2022/08/24 03:52:21;;;;;;;4.28;3.03;;;24.20;63.10;;;;;;10058514;28;20545;-66
2022/08/24 03:57:13;;;;;;;7.07;3.05;;;24.10;63.10;;;;;;10050719;28;20018;-66
2022/08/24 04:02:03;;;;;;;5.47;3.13;;;24.00;62.80;;;;;;10063444;28;20472;-66
2022/08/24 04:06:54;;;;;;;4.07;3.17;;;24.10;63.00;;;;;;10063489;28;20068;-66
2022/08/24 04:11:45;;;;;;;3.42;2.38;;;24.20;62.60;;;;;;10055880;28;20475;-66
2022/08/24 04:16:35;;;;;;;6.30;2.78;;;24.10;62.40;;;;;;10067552;28;20116;-66
2022/08/24 04:21:30;;;;;;;5.50;2.75;;;24.10;62.40;;;;;;10057494;28;20167;-67
2022/08/24 04:26:23;;;;;;;5.90;2.70;;;24.20;62.10;;;;;;10057540;28;20503;-66
2022/08/24 04:31:14;;;;;;;7.25;2.95;;;24.20;61.90;;;;;;10056503;28;20025;-66
2022/08/24 04:36:10;;;;;;;6.30;2.90;;;24.10;62.10;;;;;;10054012;28;20436;-66
2022/08/24 04:41:08;;;;;;;4.10;2.92;;;23.90;62.50;;;;;;10063405;28;20387;-66
2022/08/24 04:45:59;;;;;;;10.82;3.40;;;23.90;62.60;;;;;;10062733;28;20407;-66
2022/08/24 04:50:50;;;;;;;7.18;3.58;;;23.80;62.50;;;;;;10058626;28;20484;-66
2022/08/24 04:55:46;;;;;;;6.47;3.58;;;23.70;62.90;;;;;;10057122;28;20014;-66
2022/08/24 05:00:37;;;;;;;4.95;3.78;;;23.80;63.00;;;;;;10055880;28;20662;-66
2022/08/24 05:05:27;;;;;;;6.38;3.63;;;23.80;63.20;;;;;;10053680;28;20192;-66
2022/08/24 05:10:18;;;;;;;4.85;3.28;;;23.60;63.60;;;;;;10061156;28;20737;-66
2022/08/24 05:15:09;;;;;;;3.80;3.30;;;23.60;63.90;;;;;;10066519;28;20239;-67
2022/08/24 05:20:00;;;;;;;5.97;3.58;;;23.60;63.80;;;;;;10046208;28;20021;-66
2022/08/24 05:24:50;;;;;;;6.47;3.80;;;23.70;63.80;;;;;;10037385;28;20021;-65
2022/08/24 05:29:41;;;;;;;8.95;3.92;;;23.40;64.00;;;;;;10036458;28;20407;-66
2022/08/24 05:34:32;;;;;;;5.80;3.40;;;23.60;64.10;;;;;;10052898;28;20029;-66
2022/08/24 05:39:22;;;;;;;5.32;3.97;;;23.80;63.90;;;;;;10062387;28;20025;-66
2022/08/24 05:44:15;;;;;;;5.32;4.07;;;23.60;64.50;;;;;;10062671;28;20391;-66
2022/08/24 05:49:07;;;;;;;6.97;4.70;;;23.50;65.10;;;;;;10059152;28;20522;-66
2022/08/24 05:53:58;;;;;;;9.82;4.00;;;23.30;65.30;;;;;;10054291;28;20112;-66
2022/08/24 05:58:49;;;;;;;7.38;4.32;;;23.40;65.50;;;;;;10053902;28;20053;-66
2022/08/24 06:03:40;;;;;;;6.10;4.10;;;23.50;65.30;;;;;;10025012;28;20483;-65
2022/08/24 06:08:30;;;;;;;6.40;4.47;;;23.50;65.90;;;;;;10059545;28;20037;-65
2022/08/24 06:13:21;;;;;;;6.30;4.30;;;23.30;66.30;;;;;;10069300;28;20029;-66
2022/08/24 06:18:12;;;;;;;4.45;4.03;;;23.30;66.70;;;;;;10052247;28;20022;-67
2022/08/24 06:23:03;;;;;;;7.40;3.97;;;23.20;66.90;;;;;;10036012;28;20029;-66
2022/08/24 06:27:54;;;;;;;6.72;4.22;;;23.40;66.70;;;;;;10052425;28;20121;-66
2022/08/24 06:32:44;;;;;;;8.80;4.57;;;23.50;66.70;;;;;;10054563;28;20106;-66
2022/08/24 06:37:35;;;;;;;7.43;4.80;;;23.50;66.60;;;;;;10062116;28;20403;-66
2022/08/24 06:42:28;;;;;;;5.88;3.88;;;23.40;66.70;;;;;;10040173;28;20484;-67
2022/08/24 06:47:19;;;;;;;5.03;3.72;;;23.40;66.90;;;;;;10054042;28;20042;-66
2022/08/24 06:52:12;;;;;;;9.50;4.18;;;23.40;66.60;;;;;;10051875;28;20152;-66
2022/08/24 06:57:04;;;;;;;6.15;4.78;;;23.80;66.20;;;;;;10052364;28;20037;-65
2022/08/24 07:01:55;;;;;;;7.22;4.65;;;23.90;65.90;;;;;;10057322;28;20028;-65
2022/08/24 07:06:46;;;;;;;6.07;3.78;;;24.00;65.70;;;;;;10057476;28;20051;-66
2022/08/24 07:11:37;;;;;;;5.28;3.63;;;24.00;66.00;;;;;;10046566;28;20022;-66
2022/08/24 07:16:27;;;;;;;7.15;5.13;;;24.00;65.70;;;;;;10057808;28;20033;-67
2022/08/24 07:21:18;;;;;;;4.95;4.13;;;24.20;65.30;;;;;;10051997;28;20446;-65
2022/08/24 07:26:14;;;;;;;6.28;3.55;;;24.40;64.80;;;;;;10041075;28;20128;-65
2022/08/24 07:31:05;;;;;;;7.18;3.40;;;24.50;64.20;;;;;;10051258;28;20072;-66
2022/08/24 07:35:56;;;;;;;5.70;3.45;;;24.70;63.80;;;;;;10051337;28;20084;-65
2022/08/24 07:40:47;;;;;;;5.63;3.50;;;25.00;63.50;;;;;;10057617;28;20484;-66
2022/08/24 07:45:40;;;;;;;4.93;3.50;;;25.00;63.30;;;;;;10057773;28;20432;-66
2022/08/24 07:50:31;;;;;;;4.75;3.60;;;25.20;62.80;;;;;;10055410;28;20669;-66
2022/08/24 07:55:22;;;;;;;7.55;3.95;;;25.40;62.70;;;;;;10052939;28;20021;-66
2022/08/24 08:00:15;;;;;;;7.78;3.80;;;25.60;62.60;;;;;;10051035;28;20084;-65
2022/08/24 08:05:06;;;;;;;6.87;3.97;;;25.80;62.20;;;;;;10048408;28;20029;-67
2022/08/24 08:09:57;;;;;;;4.88;3.30;;;25.90;62.20;;;;;;10059835;28;20029;-65
2022/08/24 08:14:48;;;;;;;8.18;4.43;;;26.00;62.00;;;;;;10062994;28;20040;-65
2022/08/24 08:19:40;;;;;;;6.40;3.88;;;26.10;61.70;;;;;;10051322;28;20678;-66
2022/08/24 08:24:31;;;;;;;10.00;3.40;;;26.20;61.60;;;;;;10050859;28;20601;-66
2022/08/24 08:29:23;;;;;;;4.43;3.28;;;26.40;61.40;;;;;;10052857;28;20403;-66
2022/08/24 08:34:15;;;;;;;5.90;4.28;;;26.40;61.10;;;;;;10057592;28;20041;-66
2022/08/24 08:39:08;;;;;;;7.18;3.92;;;26.40;60.90;;;;;;10063743;28;20022;-66
2022/08/24 08:44:16;;;;;;;6.57;4.00;;;26.40;60.70;;;;;;10039310;28;20021;-66
2022/08/24 08:49:34;;;;;;;3.30;3.00;;;26.60;60.30;;;;;;10054458;28;20400;-65
2022/08/24 08:54:44;;;;;;;4.47;3.97;;;26.70;60.00;;;;;;10053112;28;20030;-66
2022/08/24 09:00:07;;;;;;;6.03;3.35;;;26.80;59.80;;;;;;10068033;28;20092;-66
2022/08/24 09:05:26;;;;;;;4.53;2.90;;;26.80;59.40;;;;;;10042750;28;20022;-65
2022/08/24 09:10:39;;;;;;;3.60;2.72;;;27.00;59.40;;;;;;10048288;28;20099;-66
2022/08/24 09:15:45;;;;;;;8.05;3.35;;;27.00;59.30;;;;;;10065554;28;20468;-66
2022/08/24 09:21:12;;;;;;;5.15;3.08;;;27.10;59.20;;;;;;10051359;28;20040;-67
2022/08/24 09:26:29;;;;;;;4.80;3.38;;;27.20;58.80;;;;;;10044841;28;20404;-66
2022/08/24 09:31:40;;;;;;;7.78;3.13;;;27.20;58.60;;;;;;9977935;28;20496;-66
2022/08/24 09:36:58;;;;;;;4.90;2.70;;;27.50;58.30;;;;;;9974745;28;20396;-66
2022/08/24 09:42:01;;;;;;;3.42;2.63;;;27.40;58.20;;;;;;9980186;28;20096;-66
2022/08/24 09:46:52;;;;;;;7.35;2.95;;;27.50;58.10;;;;;;9973788;28;20045;-66
2022/08/24 09:52:10;;;;;;;3.83;2.25;;;27.60;57.90;;;;;;9977542;28;20026;-66
2022/08/24 09:57:17;;;;;;;3.20;2.22;;;27.80;57.80;;;;;;9969676;28;20030;-66
2022/08/24 10:02:47;;;;;;;4.18;2.80;;;28.10;57.40;;;;;;9979765;28;20018;-65
2022/08/24 10:07:54;;;;;;;3.78;2.50;;;28.30;56.90;;;;;;9978632;28;20034;-65
2022/08/24 10:12:51;;;;;;;6.07;3.08;;;28.40;56.80;;;;;;9970109;28;20029;-65
2022/08/24 10:18:22;;;;;;;3.03;2.35;;;28.60;56.60;;;;;;9972350;28;20033;-66
2022/08/24 10:23:30;;;;;;;3.38;2.60;;;28.70;55.90;;;;;;9973535;28;20211;-66
2022/08/24 10:28:36;;;;;;;3.40;2.92;;;28.80;55.80;;;;;;10017371;28;20052;-66
2022/08/24 10:33:47;;;;;;;10.20;2.72;;;29.10;55.60;;;;;;10055227;28;20334;-65
2022/08/24 10:44:35;;;;;;;3.75;2.72;;;29.50;54.50;;;;;;10049095;28;20271;-66
2022/08/24 10:49:34;;;;;;;3.85;2.45;;;29.60;54.20;;;;;;10047470;28;20527;-66
2022/08/24 10:54:25;;;;;;;3.13;2.33;;;29.80;54.20;;;;;;10052108;28;20075;-66
2022/08/24 10:59:25;;;;;;;6.18;3.60;;;29.80;53.90;;;;;;10043004;28;20192;-66
2022/08/24 11:04:27;;;;;;;4.60;2.75;;;29.80;53.30;;;;;;10051728;28;20021;-66
2022/08/24 11:09:18;;;;;;;3.95;2.45;;;29.90;52.50;;;;;;10042522;28;20093;-65
2022/08/24 11:14:27;;;;;;;4.15;3.28;;;30.00;52.20;;;;;;10055648;28;20188;-66
2022/08/24 11:19:31;;;;;;;2.75;1.90;;;30.30;51.40;;;;;;10043232;28;20113;-66
2022/08/24 11:24:25;;;;;;;3.38;2.15;;;30.40;50.80;;;;;;10051339;28;20018;-65
2022/08/24 11:29:16;;;;;;;2.85;2.00;;;30.40;50.60;;;;;;10061575;28;20106;-67
2022/08/24 11:34:16;;;;;;;4.70;1.60;;;30.50;50.00;;;;;;10060712;28;20029;-66
2022/08/24 11:39:21;;;;;;;3.30;1.92;;;30.60;49.30;;;;;;10063236;28;20029;-66
2022/08/24 11:44:31;;;;;;;5.10;2.50;;;30.70;49.00;;;;;;10054712;28;20034;-66
2022/08/24 11:49:25;;;;;;;3.42;2.42;;;30.90;48.80;;;;;;10054956;28;20069;-65
2022/08/24 11:54:34;;;;;;;2.97;2.05;;;31.10;48.80;;;;;;10047246;28;20029;-66
2022/08/24 11:59:44;;;;;;;6.10;1.70;;;31.10;47.70;;;;;;10057756;28;20045;-67
2022/08/24 12:05:14;;;;;;;4.60;2.75;;;31.40;47.40;;;;;;10058839;28;20029;-67
2022/08/24 12:10:18;;;;;;;1.92;1.75;;;31.50;46.70;;;;;;10003287;28;20076;-68
2022/08/24 12:15:16;;;;;;;3.78;2.30;;;31.50;46.40;;;;;;10057473;28;20096;-67
2022/08/24 12:20:28;;;;;;;2.83;2.55;;;31.80;46.00;;;;;;10055086;28;20104;-66
2022/08/24 12:30:28;;;;;;;2.63;2.40;;;32.30;45.50;;;;;;10068258;28;20103;-66
2022/08/24 12:35:44;;;;;;;4.78;2.80;;;32.70;45.20;;;;;;10060261;28;20035;-66
2022/08/24 12:40:40;;;;;;;2.15;1.77;;;33.10;44.00;;;;;;10061577;28;20036;-66
2022/08/24 12:45:31;;;;;;;3.85;2.08;;;33.40;44.40;;;;;;10062996;28;20061;-66
2022/08/24 12:50:45;;;;;;;3.45;1.90;;;33.50;44.20;;;;;;10059676;28;20388;-65
2022/08/24 12:55:57;;;;;;;6.57;2.60;;;33.70;42.80;;;;;;10057571;28;20091;-66
2022/08/24 13:00:48;;;;;;;;;;;33.80;42.50;;;;;;10060556;28;20040;-66
2022/08/24 13:05:45;;;;;;;5.63;2.28;;;33.80;42.40;;;;;;10049250;28;20454;-65
2022/08/24 13:10:44;;;;;;;4.30;1.67;;;33.90;43.00;;;;;;10059453;28;20036;-65
2022/08/24 13:15:34;;;;;;;5.47;1.73;;;34.30;42.40;;;;;;10066103;28;20474;-65
2022/08/24 13:20:28;;;;;;;3.20;1.60;;;34.70;42.30;;;;;;10047869;28;20090;-67
2022/08/24 13:25:54;;;;;;;2.50;1.40;;;35.10;41.60;;;;;;10049964;28;20367;-66
2022/08/24 13:31:23;;;;;;;2.53;1.92;;;35.60;40.70;;;;;;10039924;28;20041;-66
2022/08/24 13:36:40;;;;;;;2.92;1.42;;;37.00;39.60;;;;;;10063164;28;20442;-67
2022/08/24 13:41:47;;;;;;;2.92;1.80;;;37.50;38.80;;;;;;10064995;28;20495;-66
2022/08/24 13:47:01;;;;;;;2.33;1.65;;;38.00;38.40;;;;;;10039864;28;20495;-65
2022/08/24 13:52:17;;;;;;;2.00;1.83;;;38.60;37.70;;;;;;10047177;28;20029;-66
2022/08/24 13:57:37;;;;;;;1.80;1.42;;;39.30;37.10;;;;;;10053573;28;20030;-66
2022/08/24 14:02:53;;;;;;;2.35;1.67;;;39.10;37.20;;;;;;10041229;28;20078;-66
2022/08/24 14:07:52;;;;;;;3.50;1.60;;;39.10;36.50;;;;;;10053867;28;20432;-65
2022/08/24 14:13:16;;;;;;;2.25;1.40;;;39.00;37.00;;;;;;10058921;28;20017;-65
2022/08/24 14:18:26;;;;;;;1.63;1.52;;;38.00;36.50;;;;;;10056570;28;20396;-65
2022/08/24 14:23:35;;;;;;;4.10;1.70;;;38.50;36.40;;;;;;10053425;28;20018;-66
2022/08/24 14:28:40;;;;;;;1.92;1.45;;;39.00;36.30;;;;;;10044992;28;20061;-66
2022/08/24 14:33:34;;;;;;;1.67;1.58;;;38.80;35.70;;;;;;10052850;28;20297;-67
2022/08/24 14:38:47;;;;;;;2.53;1.38;;;38.60;35.80;;;;;;10059444;28;20032;-66
2022/08/24 14:44:05;;;;;;;3.15;1.70;;;38.30;35.10;;;;;;10046937;28;20108;-67
2022/08/24 14:49:14;;;;;;;2.60;1.67;;;38.20;35.00;;;;;;10056986;28;20072;-66
2022/08/24 14:54:25;;;;;;;2.95;1.52;;;38.30;34.90;;;;;;10053114;28;20021;-66
2022/08/24 14:59:48;;;;;;;2.33;1.45;;;38.70;34.80;;;;;;10063306;28;20128;-65
2022/08/24 15:04:45;;;;;;;3.13;2.13;;;39.00;34.70;;;;;;10080179;28;20499;-65
2022/08/24 15:09:37;;;;;;;3.42;1.48;;;39.20;34.50;;;;;;10050267;28;20038;-66
2022/08/24 15:14:39;;;;;;;2.53;1.35;;;39.30;34.40;;;;;;10062252;28;20468;-65
2022/08/24 15:19:34;;;;;;;1.27;1.15;;;39.30;34.10;;;;;;10061473;28;20441;-65
2022/08/24 15:24:25;;;;;;;2.47;1.30;;;39.50;34.10;;;;;;10044734;28;20030;-66
2022/08/24 15:29:22;;;;;;;3.67;1.60;;;39.70;33.90;;;;;;10060866;28;20130;-66
2022/08/24 15:34:13;;;;;;;3.33;1.45;;;40.30;33.70;;;;;;10033658;28;20057;-65
2022/08/24 15:39:05;;;;;;;3.00;1.77;;;41.10;33.40;;;;;;10064905;28;20037;-67
2022/08/24 15:43:56;;;;;;;1.65;1.33;;;40.80;33.30;;;;;;10066866;28;20026;-66
2022/08/24 15:48:48;;;;;;;3.88;1.58;;;41.10;33.10;;;;;;10059671;28;20462;-67
2022/08/24 15:53:40;;;;;;;1.55;1.42;;;41.70;33.00;;;;;;10055859;28;20388;-66
2022/08/24 15:58:39;;;;;;;1.95;1.17;;;42.40;32.60;;;;;;10072145;28;20151;-66
2022/08/24 16:03:50;;;;;;;1.40;1.17;;;42.90;32.30;;;;;;10058460;28;20083;-66
2022/08/24 16:08:56;;;;;;;1.30;1.20;;;42.50;32.00;;;;;;10057367;28;20029;-67
2022/08/24 16:13:47;;;;;;;1.52;1.10;;;42.20;32.10;;;;;;10057620;28;20036;-65
2022/08/24 16:18:51;;;;;;;2.38;1.48;;;41.40;32.20;;;;;;10058623;28;20032;-66
2022/08/24 16:23:44;;;;;;;1.67;1.20;;;41.60;32.20;;;;;;10062538;28;20056;-67
2022/08/24 16:28:35;;;;;;;2.58;1.30;;;42.20;31.70;;;;;;10057025;28;20366;-67
2022/08/24 16:33:29;;;;;;;1.73;1.63;;;43.00;31.50;;;;;;10052572;28;20397;-66
2022/08/24 16:38:19;;;;;;;1.75;1.58;;;43.30;31.10;;;;;;10060151;28;20029;-66
2022/08/24 16:43:10;;;;;;;;;;;42.90;31.70;;;;;;10062629;28;20026;-66
2022/08/24 16:48:00;;;;;;;2.87;2.20;;;42.90;30.90;;;;;;10030499;28;20008;-66
2022/08/24 16:52:51;;;;;;;2.00;1.25;;;43.30;30.60;;;;;;10061128;28;20026;-66
2022/08/24 16:57:42;;;;;;;3.60;2.05;;;42.80;30.80;;;;;;10065727;28;20036;-66
2022/08/24 17:02:33;;;;;;;2.10;1.73;;;43.40;30.60;;;;;;10068203;28;20026;-66
2022/08/24 17:07:27;;;;;;;2.78;1.50;;;43.40;30.70;;;;;;10049554;28;20048;-65
2022/08/24 17:12:18;;;;;;;6.68;2.50;;;43.80;30.70;;;;;;10068020;28;20021;-65
2022/08/24 17:17:12;;;;;;;2.13;1.48;;;43.20;30.80;;;;;;10041915;28;20121;-66
2022/08/24 17:22:04;;;;;;;3.17;1.15;;;42.70;31.10;;;;;;10055432;28;20017;-67
2022/08/24 17:26:55;;;;;;;2.05;1.13;;;40.20;31.60;;;;;;10055066;28;20131;-66
2022/08/24 17:31:48;;;;;;;4.00;1.33;;;37.60;33.10;;;;;;10064981;28;20111;-65
2022/08/24 17:36:42;;;;;;;2.67;1.70;;;35.80;34.10;;;;;;10058383;28;20036;-65
2022/08/24 17:41:33;;;;;;;3.05;1.40;;;35.00;34.60;;;;;;10062098;28;20029;-66
2022/08/24 17:46:24;;;;;;;3.30;1.42;;;34.40;34.90;;;;;;10047017;28;20132;-67
2022/08/24 17:51:15;;;;;;;2.70;1.50;;;34.20;35.20;;;;;;10056776;28;20167;-67
2022/08/24 17:56:07;;;;;;;2.33;1.13;;;33.90;35.40;;;;;;10052147;28;20407;-65
2022/08/24 18:00:58;;;;;;;5.28;2.00;;;33.60;35.80;;;;;;10048417;28;20476;-66
2022/08/24 18:05:48;;;;;;;20.65;7.00;;;33.50;36.10;;;;;;10069592;28;20020;-66
2022/08/24 18:10:39;;;;;;;2.63;2.25;;;33.30;36.30;;;;;;10054920;28;20037;-65
2022/08/24 18:15:33;;;;;;;1.65;1.48;;;33.10;36.70;;;;;;10059761;28;20071;-66
2022/08/24 18:20:26;;;;;;;2.97;2.28;;;33.00;36.90;;;;;;10052949;28;20025;-65
2022/08/24 18:25:19;;;;;;;3.70;2.67;;;32.80;37.10;;;;;;10052373;28;20022;-66
2022/08/24 18:30:20;;;;;;;7.72;2.92;;;32.70;37.50;;;;;;10068573;28;20057;-66
2022/08/24 18:35:11;;;;;;;5.13;2.90;;;32.60;37.70;;;;;;10080630;28;20123;-65
2022/08/24 18:40:03;;;;;;;3.35;2.28;;;32.30;37.80;;;;;;10061920;28;20443;-65
2022/08/24 18:44:54;;;;;;;6.25;2.38;;;32.20;38.10;;;;;;10059613;28;20467;-65
2022/08/24 18:49:45;;;;;;;4.47;2.70;;;32.00;38.40;;;;;;10056896;28;20033;-66
2022/08/24 18:54:40;;;;;;;3.72;2.83;;;31.90;38.70;;;;;;10046723;28;20480;-65
2022/08/24 18:59:31;;;;;;;5.10;3.33;;;31.70;38.90;;;;;;10063667;28;20340;-67
2022/08/24 19:04:22;;;;;;;4.47;2.90;;;31.50;39.10;;;;;;10052347;28;20652;-67
2022/08/24 19:09:13;;;;;;;5.22;2.90;;;31.50;39.40;;;;;;10054655;28;20175;-67
2022/08/24 19:14:04;;;;;;;6.50;3.38;;;31.40;39.40;;;;;;10059816;28;20256;-67
2022/08/24 19:18:55;;;;;;;7.20;3.63;;;31.40;39.70;;;;;;10054631;28;20461;-65
2022/08/24 19:23:46;;;;;;;7.43;4.13;;;31.30;39.90;;;;;;10046093;28;20434;-66
2022/08/24 19:28:36;;;;;;;8.70;3.38;;;31.20;40.20;;;;;;10051226;28;20140;-65
2022/08/24 19:33:37;;;;;;;9.60;4.22;;;31.10;40.50;;;;;;10033463;28;20113;-64
2022/08/24 19:38:29;;;;;;;9.40;4.75;;;31.10;40.70;;;;;;10057968;28;20045;-65
2022/08/24 19:43:20;;;;;;;9.18;3.90;;;30.90;40.80;;;;;;10058034;28;20064;-65
2022/08/24 19:48:11;;;;;;;9.10;4.05;;;30.90;41.10;;;;;;10060045;28;20080;-65
2022/08/24 19:53:03;;;;;;;6.15;3.25;;;30.70;41.30;;;;;;10054701;28;20057;-66
2022/08/24 19:58:05;;;;;;;5.50;3.05;;;30.70;41.50;;;;;;10052834;28;20025;-65
2022/08/24 20:02:56;;;;;;;8.07;3.30;;;30.50;41.80;;;;;;10075381;28;20033;-67
2022/08/24 20:07:48;;;;;;;6.72;3.20;;;30.40;41.90;;;;;;10059613;28;20555;-65
2022/08/24 20:12:39;;;;;;;5.32;2.80;;;30.40;42.10;;;;;;10065081;28;20078;-65
2022/08/24 20:17:29;;;;;;;6.90;2.63;;;30.30;42.10;;;;;;10061574;28;20030;-65
2022/08/24 20:22:20;;;;;;;4.82;3.33;;;30.20;42.40;;;;;;10049529;28;20014;-66
2022/08/24 20:27:16;;;;;;;7.53;2.80;;;30.20;42.30;;;;;;10069466;28;20056;-66
2022/08/24 20:32:06;;;;;;;5.35;4.30;;;30.00;42.50;;;;;;10039461;28;20025;-68
2022/08/24 20:36:58;;;;;;;6.00;2.70;;;30.10;42.80;;;;;;10061414;28;20052;-66
2022/08/24 20:41:51;;;;;;;3.50;2.65;;;30.00;43.00;;;;;;10063297;28;20021;-67
2022/08/24 20:46:42;;;;;;;2.53;2.00;;;30.00;43.20;;;;;;10043924;28;20426;-66
2022/08/24 20:51:33;;;;;;;3.50;2.35;;;29.90;43.50;;;;;;10062203;28;20124;-65
2022/08/24 20:56:29;;;;;;;5.38;2.28;;;29.80;43.70;;;;;;10056404;28;20551;-66
2022/08/24 21:01:19;;;;;;;4.07;2.53;;;29.80;44.00;;;;;;10053015;28;20117;-67
2022/08/24 21:06:14;;;;;;;2.67;2.13;;;29.70;44.20;;;;;;10060866;28;20546;-67
2022/08/24 21:11:05;;;;;;;3.67;2.38;;;29.60;44.50;;;;;;10062150;28;20479;-65
2022/08/24 21:15:56;;;;;;;5.70;3.38;;;29.50;44.70;;;;;;10046524;28;20053;-65
2022/08/24 21:20:47;;;;;;;6.63;2.50;;;29.40;45.10;;;;;;10038042;28;20039;-66
2022/08/24 21:25:38;;;;;;;7.80;2.92;;;29.30;45.10;;;;;;10068957;28;20215;-66
2022/08/24 21:30:29;;;;;;;5.47;2.60;;;29.20;45.70;;;;;;10061758;28;20045;-66
2022/08/24 21:35:21;;;;;;;6.10;2.50;;;29.10;45.90;;;;;;10060063;28;20466;-67
2022/08/24 21:40:12;;;;;;;8.05;3.80;;;29.10;46.20;;;;;;10062423;28;20030;-66
2022/08/24 21:45:03;;;;;;;5.60;3.00;;;29.00;46.50;;;;;;10067406;28;20019;-66
2022/08/24 21:49:54;;;;;;;4.60;2.45;;;29.00;46.80;;;;;;10057541;28;20037;-67
2022/08/24 21:54:45;;;;;;;4.68;2.80;;;29.00;47.10;;;;;;10054294;28;20028;-66
2022/08/24 21:59:36;;;;;;;6.32;2.70;;;28.90;47.40;;;;;;10078819;28;20256;-70
2022/08/24 22:04:27;;;;;;;3.55;2.55;;;28.70;47.70;;;;;;10054165;28;20018;-66
2022/08/24 22:09:19;;;;;;;7.93;3.53;;;28.80;47.90;;;;;;10039639;28;20037;-66
2022/08/24 22:14:09;;;;;;;5.63;3.17;;;28.80;48.20;;;;;;10052598;28;20484;-65
2022/08/24 22:19:00;;;;;;;7.38;4.03;;;28.70;48.40;;;;;;10054276;28;20033;-67
2022/08/24 22:23:51;;;;;;;8.15;2.80;;;28.50;48.70;;;;;;10053310;28;20472;-66
2022/08/24 22:28:41;;;;;;;4.97;3.20;;;28.50;49.10;;;;;;10042715;28;20053;-67
2022/08/24 22:33:32;;;;;;;4.03;2.63;;;28.50;49.30;;;;;;10051933;28;20036;-65
2022/08/24 22:38:23;;;;;;;3.53;2.17;;;28.50;49.70;;;;;;10059435;28;20025;-67
2022/08/24 22:43:14;;;;;;;3.28;2.17;;;28.40;50.00;;;;;;10060151;28;20439;-65
2022/08/24 22:48:05;;;;;;;4.15;2.65;;;28.40;50.10;;;;;;10055863;28;20116;-66
2022/08/24 22:52:55;;;;;;;4.38;1.98;;;28.30;50.50;;;;;;10054823;28;20025;-67
2022/08/24 22:57:47;;;;;;;3.65;2.05;;;28.20;50.70;;;;;;10051912;28;20395;-66
2022/08/24 23:02:38;;;;;;;4.05;1.75;;;28.10;51.10;;;;;;10058219;28;20518;-67
2022/08/24 23:07:28;;;;;;;3.50;2.15;;;28.00;51.50;;;;;;10051637;28;20030;-67
2022/08/24 23:12:21;;;;;;;2.80;2.15;;;27.90;51.90;;;;;;10053869;28;20025;-66
2022/08/24 23:17:13;;;;;;;2.50;1.80;;;27.80;52.10;;;;;;10056780;28;20034;-67
2022/08/24 23:22:05;;;;;;;5.35;2.67;;;27.70;52.30;;;;;;10051244;28;20374;-66
2022/08/24 23:26:56;;;;;;;3.47;2.30;;;27.60;52.80;;;;;;10063501;28;20112;-67
2022/08/24 23:31:47;;;;;;;2.72;2.10;;;27.60;52.90;;;;;;10051115;28;20035;-66
2022/08/24 23:36:38;;;;;;;3.83;1.98;;;27.50;53.10;;;;;;10050210;28;20506;-66
2022/08/24 23:41:31;;;;;;;3.03;2.10;;;27.60;53.20;;;;;;10054456;28;20098;-66
2022/08/24 23:46:22;;;;;;;4.35;2.00;;;27.60;53.20;;;;;;10056905;28;20531;-66
2022/08/24 23:51:15;;;;;;;3.28;2.00;;;27.50;53.40;;;;;;10056800;28;20067;-66
2022/08/24 23:56:08;;;;;;;3.13;1.75;;;27.40;53.70;;;;;;10057784;28;20407;-65
